createdAt,value
2018-02-23T00:00:39.749Z,53.60
2018-02-23T00:03:09.069Z,53.80
2018-02-23T00:05:37.414Z,54.10
2018-02-23T00:08:07.123Z,54.10
2018-02-23T00:10:36.467Z,54.50
2018-02-23T00:13:05.046Z,53.90
2018-02-23T00:15:34.061Z,54.30
2018-02-23T00:18:03.415Z,54.60
2018-02-23T00:20:32.952Z,54.70
2018-02-23T00:23:02.226Z,54.60
2018-02-23T00:25:31.054Z,55.10
2018-02-23T00:27:59.627Z,55.40
2018-02-23T00:30:28.020Z,55.60
2018-02-23T00:32:56.419Z,55.60
2018-02-23T00:35:24.754Z,56.20
2018-02-23T00:37:53.535Z,56.60
2018-02-23T00:40:23.402Z,57.10
2018-02-23T00:42:51.960Z,57.00
2018-02-23T00:45:20.482Z,57.30
2018-02-23T00:47:48.858Z,57.90
2018-02-23T00:50:17.171Z,58.50
2018-02-23T00:52:45.502Z,58.20
2018-02-23T00:55:13.822Z,58.30
2018-02-23T00:57:42.881Z,59.20
2018-02-23T01:00:11.247Z,59.20
2018-02-23T01:02:39.811Z,59.70
2018-02-23T01:05:08.902Z,60.60
2018-02-23T01:07:37.238Z,60.60
2018-02-23T01:10:05.600Z,61.10
2018-02-23T01:12:34.280Z,61.50
2018-02-23T01:15:03.516Z,62.30
2018-02-23T01:17:32.661Z,62.10
2018-02-23T01:20:01.806Z,62.40
2018-02-23T01:22:30.311Z,62.70
2018-02-23T01:24:58.826Z,62.60
2018-02-23T01:27:27.185Z,62.80
2018-02-23T01:29:56.274Z,63.30
2018-02-23T01:32:25.135Z,63.30
2018-02-23T01:34:54.039Z,64.40
2018-02-23T01:37:22.515Z,65.00
2018-02-23T01:39:50.956Z,65.80
2018-02-23T01:42:19.514Z,66.90
2018-02-23T01:44:48.601Z,66.60
2018-02-23T01:47:16.895Z,66.50
2018-02-23T01:49:45.218Z,66.50
2018-02-23T01:52:13.546Z,65.90
2018-02-23T01:54:41.889Z,66.00
2018-02-23T01:57:10.178Z,65.80
2018-02-23T01:59:39.486Z,65.80
2018-02-23T02:02:07.960Z,65.80
2018-02-23T02:04:36.694Z,65.80
2018-02-23T02:07:05.511Z,65.90
2018-02-23T02:09:34.127Z,65.90
2018-02-23T02:12:02.594Z,66.30
2018-02-23T02:14:31.515Z,66.50
2018-02-23T02:17:01.553Z,67.00
2018-02-23T02:19:30.217Z,67.00
2018-02-23T02:21:59.018Z,67.00
2018-02-23T02:24:27.600Z,67.00
2018-02-23T02:26:56.184Z,67.10
2018-02-23T02:29:24.626Z,67.60
2018-02-23T02:31:53.227Z,67.80
2018-02-23T02:34:21.615Z,68.20
2018-02-23T02:36:50.781Z,68.80
2018-02-23T02:39:19.332Z,68.80
2018-02-23T02:41:47.684Z,68.60
2018-02-23T02:44:15.983Z,68.90
2018-02-23T02:46:44.323Z,68.50
2018-02-23T02:49:12.629Z,68.80
2018-02-23T02:51:40.962Z,68.80
2018-02-23T02:54:12.036Z,68.50
2018-02-23T02:56:40.332Z,68.10
2018-02-23T02:59:09.036Z,68.20
2018-02-23T03:01:37.621Z,68.50
2018-02-23T03:04:06.235Z,68.40
2018-02-23T03:06:35.095Z,68.50
2018-02-23T03:09:04.606Z,68.80
2018-02-23T03:11:33.410Z,68.70
2018-02-23T03:14:02.463Z,69.10
2018-02-23T03:16:30.992Z,68.70
2018-02-23T03:19:00.535Z,68.80
2018-02-23T03:21:30.223Z,68.70
2018-02-23T03:23:58.935Z,68.70
2018-02-23T03:26:27.297Z,69.10
2018-02-23T03:28:55.727Z,70.20
2018-02-23T03:31:26.320Z,69.80
2018-02-23T03:33:54.602Z,69.80
2018-02-23T03:36:23.391Z,69.80
2018-02-23T03:38:51.832Z,70.10
2018-02-23T03:41:20.995Z,70.60
2018-02-23T03:43:50.199Z,70.60
2018-02-23T03:46:18.540Z,70.80
2018-02-23T03:48:46.876Z,71.00
2018-02-23T03:51:15.162Z,71.00
2018-02-23T03:53:43.487Z,71.10
2018-02-23T03:56:11.783Z,70.60
2018-02-23T03:58:40.110Z,70.40
2018-02-23T04:01:08.451Z,70.20
2018-02-23T04:03:37.027Z,71.00
2018-02-23T04:06:05.587Z,71.00
2018-02-23T04:08:34.513Z,70.60
2018-02-23T04:11:03.353Z,70.30
2018-02-23T04:13:33.231Z,70.40
2018-02-23T04:16:02.467Z,70.40
2018-02-23T04:18:32.211Z,70.50
2018-02-23T04:21:01.294Z,70.30
2018-02-23T04:23:31.260Z,70.30
2018-02-23T04:25:59.931Z,70.20
2018-02-23T04:28:29.222Z,70.30
2018-02-23T04:30:57.549Z,70.30
2018-02-23T04:33:25.874Z,70.30
2018-02-23T04:35:54.531Z,70.70
2018-02-23T04:38:22.942Z,71.20
2018-02-23T04:40:51.482Z,70.90
2018-02-23T04:43:19.842Z,71.10
2018-02-23T04:45:49.056Z,71.20
2018-02-23T04:48:17.386Z,71.20
2018-02-23T04:50:45.711Z,71.30
2018-02-23T04:53:14.811Z,70.60
2018-02-23T04:55:43.139Z,70.60
2018-02-23T04:58:12.199Z,71.20
2018-02-23T05:00:40.522Z,71.20
2018-02-23T05:03:08.819Z,71.70
2018-02-23T05:05:37.244Z,71.60
2018-02-23T05:08:06.113Z,71.80
2018-02-23T05:10:34.836Z,72.00
2018-02-23T05:13:03.447Z,71.80
2018-02-23T05:15:32.842Z,71.80
2018-02-23T05:18:01.226Z,71.80
2018-02-23T05:20:30.594Z,72.00
2018-02-23T05:22:59.035Z,72.00
2018-02-23T05:25:27.439Z,72.50
2018-02-23T05:27:55.734Z,72.60
2018-02-23T05:30:24.059Z,72.80
2018-02-23T05:32:53.158Z,73.10
2018-02-23T05:35:21.639Z,73.10
2018-02-23T05:37:49.957Z,72.80
2018-02-23T05:40:19.150Z,72.80
2018-02-23T05:42:48.866Z,72.30
2018-02-23T05:45:17.203Z,72.80
2018-02-23T05:47:45.522Z,73.10
2018-02-23T05:50:13.810Z,73.40
2018-02-23T05:52:42.129Z,73.90
2018-02-23T05:55:10.622Z,73.90
2018-02-23T05:57:38.949Z,73.80
2018-02-23T06:00:07.249Z,73.60
2018-02-23T06:02:35.718Z,73.50
2018-02-23T06:05:04.202Z,73.50
2018-02-23T06:07:33.126Z,73.50
2018-02-23T06:10:01.441Z,73.90
2018-02-23T06:12:30.156Z,73.90
2018-02-23T06:14:58.951Z,74.30
2018-02-23T06:17:34.742Z,74.20
2018-02-23T06:20:08.702Z,74.30
2018-02-23T06:22:36.998Z,74.30
2018-02-23T06:25:05.406Z,74.10
2018-02-23T06:27:34.698Z,74.20
2018-02-23T06:30:05.031Z,74.00
2018-02-23T06:32:33.577Z,74.00
2018-02-23T06:35:02.042Z,74.10
2018-02-23T06:37:30.898Z,73.70
2018-02-23T06:39:59.387Z,73.50
2018-02-23T06:42:27.838Z,73.50
2018-02-23T06:44:56.223Z,73.40
2018-02-23T06:47:24.529Z,73.50
2018-02-23T06:49:53.010Z,73.50
2018-02-23T06:52:22.500Z,73.70
2018-02-23T06:54:50.996Z,73.60
2018-02-23T06:57:20.085Z,73.50
2018-02-23T06:59:48.398Z,73.40
2018-02-23T07:02:16.729Z,73.20
2018-02-23T07:04:45.828Z,73.70
2018-02-23T07:07:14.153Z,73.10
2018-02-23T07:09:43.333Z,73.10
2018-02-23T07:12:11.670Z,73.00
2018-02-23T07:14:40.735Z,72.90
2018-02-23T07:17:09.030Z,72.90
2018-02-23T07:19:37.622Z,72.80
2018-02-23T07:22:06.016Z,72.90
2018-02-23T07:24:34.796Z,72.60
2018-02-23T07:27:04.003Z,72.00
2018-02-23T07:29:32.456Z,72.00
2018-02-23T07:32:01.215Z,71.90
2018-02-23T07:34:29.722Z,71.00
2018-02-23T07:36:58.640Z,71.10
2018-02-23T07:39:26.968Z,71.50
2018-02-23T07:41:55.262Z,71.90
2018-02-23T07:44:23.651Z,71.70
2018-02-23T07:46:51.974Z,71.40
2018-02-23T07:49:20.369Z,71.30
2018-02-23T07:51:48.750Z,70.90
2018-02-23T07:54:17.111Z,70.90
2018-02-23T07:56:46.204Z,70.50
2018-02-23T07:59:14.790Z,70.50
2018-02-23T08:01:43.082Z,71.60
2018-02-23T08:04:11.380Z,71.20
2018-02-23T08:06:39.712Z,70.80
2018-02-23T08:09:08.010Z,70.70
2018-02-23T08:11:36.320Z,70.70
2018-02-23T08:14:04.810Z,71.10
2018-02-23T08:16:34.026Z,69.30
2018-02-23T08:19:02.470Z,69.30
2018-02-23T08:21:31.883Z,69.00
2018-02-23T08:24:00.468Z,69.00
2018-02-23T08:26:29.060Z,68.60
2018-02-23T08:28:57.598Z,68.10
2018-02-23T08:31:25.928Z,67.80
2018-02-23T08:33:54.987Z,68.00
2018-02-23T08:36:23.315Z,68.00
2018-02-23T08:38:51.934Z,68.30
2018-02-23T08:41:20.279Z,66.90
2018-02-23T08:43:48.592Z,66.80
2018-02-23T08:46:16.914Z,67.10
2018-02-23T08:48:45.235Z,66.80
2018-02-23T08:51:13.558Z,66.60
2018-02-23T08:53:41.858Z,66.40
2018-02-23T08:56:10.190Z,64.40
2018-02-23T08:58:38.525Z,63.60
2018-02-23T09:01:06.814Z,63.60
2018-02-23T09:03:35.134Z,62.60
2018-02-23T09:06:03.478Z,63.90
2018-02-23T09:08:32.442Z,65.20
2018-02-23T09:11:01.680Z,62.60
2018-02-23T09:13:29.996Z,62.50
2018-02-23T09:15:58.451Z,61.80
2018-02-23T09:18:26.834Z,62.10
2018-02-23T09:20:55.896Z,59.50
2018-02-23T09:23:24.230Z,59.50
2018-02-23T09:25:52.617Z,57.60
2018-02-23T09:28:20.957Z,57.40
2018-02-23T09:30:50.019Z,56.70
2018-02-23T09:33:18.349Z,56.60
2018-02-23T09:35:46.671Z,56.10
2018-02-23T09:38:15.046Z,54.90
2018-02-23T09:40:43.347Z,55.30
2018-02-23T09:43:11.649Z,56.00
2018-02-23T09:45:39.981Z,54.90
2018-02-23T09:48:08.309Z,55.00
2018-02-23T09:50:37.397Z,56.70
2018-02-23T09:53:05.709Z,56.50
2018-02-23T09:55:34.030Z,56.70
2018-02-23T09:58:03.096Z,55.70
2018-02-23T10:00:31.713Z,55.60
2018-02-23T10:03:00.003Z,56.70
2018-02-23T10:05:28.336Z,57.10
2018-02-23T10:07:56.937Z,57.00
2018-02-23T10:10:25.339Z,56.50
2018-02-23T10:12:53.641Z,56.10
2018-02-23T10:15:21.985Z,55.20
2018-02-23T10:17:51.166Z,56.10
2018-02-23T10:20:19.457Z,56.10
2018-02-23T10:22:47.754Z,56.60
2018-02-23T10:25:16.090Z,56.80
2018-02-23T10:27:44.426Z,56.60
2018-02-23T10:30:12.721Z,55.30
2018-02-23T10:32:41.848Z,56.00
2018-02-23T10:35:10.125Z,56.00
2018-02-23T10:37:39.190Z,56.10
2018-02-23T10:40:07.539Z,55.90
2018-02-23T10:42:35.825Z,56.50
2018-02-23T10:45:04.226Z,56.80
2018-02-23T10:47:32.568Z,57.60
2018-02-23T10:50:01.718Z,57.20
2018-02-23T10:52:30.353Z,57.10
2018-02-23T10:54:58.757Z,56.80
2018-02-23T10:57:27.151Z,56.30
2018-02-23T10:59:55.473Z,56.50
2018-02-23T11:02:25.335Z,56.60
2018-02-23T11:04:54.436Z,54.60
2018-02-23T11:07:22.729Z,54.90
2018-02-23T11:09:51.054Z,55.80
2018-02-23T11:12:19.399Z,54.70
2018-02-23T11:14:47.694Z,54.20
2018-02-23T11:17:16.050Z,54.90
2018-02-23T11:19:44.389Z,55.00
2018-02-23T11:22:13.478Z,52.50
2018-02-23T11:24:41.866Z,52.50
2018-02-23T11:27:10.158Z,53.10
2018-02-23T11:29:38.454Z,54.80
2018-02-23T11:32:07.090Z,55.20
2018-02-23T11:34:35.409Z,54.70
2018-02-23T11:37:03.884Z,54.10
2018-02-23T11:39:32.361Z,55.50
2018-02-23T11:42:01.251Z,54.70
2018-02-23T11:44:29.809Z,53.30
2018-02-23T11:46:59.235Z,53.60
2018-02-23T11:49:28.443Z,54.70
2018-02-23T11:51:57.557Z,54.20
2018-02-23T11:54:25.887Z,54.10
2018-02-23T11:56:54.213Z,54.70
2018-02-23T11:59:22.515Z,54.50
2018-02-23T12:01:50.859Z,53.20
2018-02-23T12:04:19.394Z,54.10
2018-02-23T12:06:48.208Z,53.60
2018-02-23T12:09:16.570Z,52.90
2018-02-23T12:11:45.732Z,51.80
2018-02-23T12:14:14.464Z,51.80
2018-02-23T12:16:42.761Z,50.80
2018-02-23T12:19:11.163Z,49.60
2018-02-23T12:21:39.487Z,48.10
2018-02-23T12:24:07.787Z,49.60
2018-02-23T12:26:36.116Z,49.70
2018-02-23T12:29:04.546Z,49.80
2018-02-23T12:31:33.019Z,49.40
2018-02-23T12:34:01.703Z,50.40
2018-02-23T12:36:31.304Z,48.30
2018-02-23T12:38:59.692Z,48.30
2018-02-23T12:41:28.933Z,49.80
2018-02-23T12:43:57.274Z,49.70
2018-02-23T12:46:26.675Z,47.00
2018-02-23T12:48:54.975Z,46.50
2018-02-23T12:51:23.279Z,47.10
2018-02-23T12:53:52.554Z,48.00
2018-02-23T12:56:20.922Z,45.80
2018-02-23T12:58:49.327Z,45.90
2018-02-23T13:01:17.692Z,46.30
2018-02-23T13:03:46.222Z,46.10
2018-02-23T13:06:14.551Z,45.60
2018-02-23T13:08:42.844Z,45.70
2018-02-23T13:11:11.178Z,46.70
2018-02-23T13:13:40.271Z,45.90
2018-02-23T13:16:08.600Z,45.90
2018-02-23T13:18:37.659Z,45.00
2018-02-23T13:21:05.986Z,45.00
2018-02-23T13:23:34.383Z,45.10
2018-02-23T13:26:02.792Z,45.30
2018-02-23T13:28:51.594Z,44.20
2018-02-23T13:31:20.690Z,45.20
2018-02-23T13:33:49.078Z,44.60
2018-02-23T13:36:17.426Z,45.80
2018-02-23T13:38:46.839Z,44.30
2018-02-23T13:41:21.658Z,44.40
2018-02-23T13:43:50.020Z,44.30
2018-02-23T13:46:19.301Z,44.30
2018-02-23T13:48:47.960Z,44.30
2018-02-23T13:51:17.036Z,44.00
2018-02-23T13:53:45.340Z,44.00
2018-02-23T13:56:13.662Z,44.60
2018-02-23T13:58:41.958Z,44.40
2018-02-23T14:01:10.350Z,43.70
2018-02-23T14:03:38.681Z,43.70
2018-02-23T14:06:07.774Z,43.30
2018-02-23T14:08:36.067Z,43.30
2018-02-23T14:11:04.464Z,42.80
2018-02-23T14:13:33.111Z,42.30
2018-02-23T14:16:02.614Z,42.00
2018-02-23T14:18:30.959Z,42.00
2018-02-23T14:20:59.538Z,43.40
2018-02-23T14:23:28.326Z,43.20
2018-02-23T14:25:58.045Z,42.00
2018-02-23T14:28:26.712Z,43.10
2018-02-23T14:30:55.178Z,44.10
2018-02-23T14:33:23.509Z,44.30
2018-02-23T14:35:51.846Z,43.20
2018-02-23T14:38:20.147Z,42.20
2018-02-23T14:40:48.974Z,42.80
2018-02-23T14:43:17.310Z,43.00
2018-02-23T14:45:45.611Z,42.60
2018-02-23T14:51:12.831Z,43.90
2018-02-23T14:53:41.646Z,44.40
2018-02-23T14:56:10.018Z,44.50
2018-02-23T14:58:40.134Z,44.50
2018-02-23T15:01:09.725Z,44.50
2018-02-23T15:03:38.326Z,45.00
2018-02-23T15:06:06.943Z,44.00
2018-02-23T15:08:35.940Z,43.90
2018-02-23T15:11:05.857Z,43.30
2018-02-23T15:13:35.432Z,43.50
2018-02-23T15:16:05.792Z,44.00
2018-02-23T15:18:34.703Z,44.10
2018-02-23T15:21:03.661Z,44.30
2018-02-23T15:23:33.683Z,44.70
2018-02-23T15:26:02.651Z,44.10
2018-02-23T15:28:32.496Z,43.50
2018-02-23T15:31:14.111Z,43.10
2018-02-23T15:33:42.533Z,43.10
2018-02-23T15:36:12.865Z,43.20
2018-02-23T15:38:41.534Z,43.10
2018-02-23T15:41:10.223Z,44.00
2018-02-23T15:43:40.761Z,43.90
2018-02-23T15:46:09.573Z,43.90
2018-02-23T15:48:43.774Z,43.90
2018-02-23T15:51:13.053Z,44.50
2018-02-23T15:53:41.769Z,44.20
2018-02-23T15:56:10.373Z,44.60
2018-02-23T15:58:44.524Z,45.80
2018-02-23T16:01:13.224Z,44.70
2018-02-23T16:03:42.960Z,44.80
2018-02-23T16:06:11.647Z,44.80
2018-02-23T16:08:40.160Z,45.00
2018-02-23T16:11:08.585Z,43.90
2018-02-23T16:13:37.298Z,43.40
2018-02-23T16:16:07.234Z,43.90
2018-02-23T16:18:36.560Z,43.60
2018-02-23T16:21:05.275Z,43.60
2018-02-23T16:23:33.871Z,42.30
2018-02-23T16:26:03.705Z,42.20
2018-02-23T16:28:32.583Z,42.20
2018-02-23T16:31:01.450Z,42.30
2018-02-23T16:33:30.025Z,42.50
2018-02-23T16:35:58.876Z,43.30
2018-02-23T16:38:29.030Z,43.90
2018-02-23T16:40:59.583Z,43.90
2018-02-23T16:43:30.196Z,44.60
2018-02-23T16:45:59.022Z,44.50
2018-02-23T16:48:27.653Z,45.30
2018-02-23T16:50:57.931Z,45.50
2018-02-23T16:53:26.817Z,45.50
2018-02-23T16:55:56.038Z,45.50
2018-02-23T16:58:26.592Z,45.90
2018-02-23T17:00:55.201Z,45.90
2018-02-23T17:03:24.220Z,45.90
2018-02-23T17:05:53.722Z,46.10
2018-02-23T17:08:23.589Z,46.70
2018-02-23T17:10:53.939Z,47.10
2018-02-23T17:13:22.957Z,47.10
2018-02-23T17:15:52.590Z,47.70
2018-02-23T17:18:21.303Z,48.00
2018-02-23T17:20:51.653Z,48.90
2018-02-23T17:23:21.936Z,48.90
2018-02-23T17:25:51.744Z,48.80
2018-02-23T17:28:21.307Z,48.70
2018-02-23T17:30:51.671Z,49.00
2018-02-23T17:33:21.413Z,48.90
2018-02-23T17:35:49.929Z,48.80
2018-02-23T17:38:19.226Z,48.30
2018-02-23T17:40:48.617Z,49.00
2018-02-23T17:43:16.974Z,48.70
2018-02-23T17:45:45.335Z,48.20
2018-02-23T17:48:13.663Z,48.50
2018-02-23T17:50:42.760Z,49.70
2018-02-23T17:53:11.046Z,49.20
2018-02-23T17:55:39.438Z,49.10
2018-02-23T17:58:07.756Z,48.90
2018-02-23T18:00:36.122Z,48.90
2018-02-23T18:03:04.851Z,48.60
2018-02-23T18:05:33.566Z,48.70
2018-02-23T18:08:03.230Z,49.00
2018-02-23T18:10:32.622Z,49.00
2018-02-23T18:13:01.098Z,49.00
2018-02-23T18:15:29.787Z,49.30
2018-02-23T18:17:58.109Z,49.90
2018-02-23T18:20:27.175Z,50.50
2018-02-23T18:22:55.522Z,50.50
2018-02-23T18:25:24.642Z,50.90
2018-02-23T18:27:52.964Z,50.80
2018-02-23T18:30:21.619Z,51.00
2018-02-23T18:32:50.834Z,51.50
2018-02-23T18:35:19.193Z,51.40
2018-02-23T18:37:48.367Z,51.80
2018-02-23T18:40:17.519Z,52.60
2018-02-23T18:42:46.122Z,52.50
2018-02-23T18:45:14.420Z,52.70
2018-02-23T18:47:42.715Z,53.10
2018-02-23T18:50:11.110Z,53.70
2018-02-23T18:52:39.405Z,54.70
2018-02-23T18:55:07.785Z,54.30
2018-02-23T18:57:36.817Z,53.30
2018-02-23T19:00:05.551Z,53.30
2018-02-23T19:02:33.917Z,53.30
2018-02-23T19:05:02.304Z,53.60
2018-02-23T19:07:30.787Z,53.30
2018-02-23T19:09:59.219Z,53.70
2018-02-23T19:12:27.554Z,54.30
2018-02-23T19:14:55.970Z,54.60
2018-02-23T19:17:24.574Z,53.80
2018-02-23T19:19:52.858Z,54.20
2018-02-23T19:22:21.155Z,54.10
2018-02-23T19:24:49.679Z,54.60
2018-02-23T19:27:17.975Z,54.60
2018-02-23T19:29:46.302Z,55.00
2018-02-23T19:32:15.390Z,54.60
2018-02-23T19:34:43.723Z,55.10
2018-02-23T19:37:12.008Z,54.80
2018-02-23T19:39:40.512Z,55.00
2018-02-23T19:42:08.803Z,54.70
2018-02-23T19:44:37.134Z,54.80
2018-02-23T19:47:05.418Z,54.50
2018-02-23T19:49:33.768Z,54.50
2018-02-23T19:52:02.485Z,54.80
2018-02-23T19:54:30.969Z,54.90
2018-02-23T19:57:00.255Z,55.20
2018-02-23T19:59:28.600Z,55.20
2018-02-23T20:01:57.663Z,56.20
2018-02-23T20:04:25.990Z,56.10
2018-02-23T20:06:54.326Z,56.50
2018-02-23T20:09:23.410Z,56.80
2018-02-23T20:11:52.077Z,56.50
2018-02-23T20:14:20.431Z,55.80
2018-02-23T20:16:48.734Z,57.00
2018-02-23T20:19:17.129Z,56.90
2018-02-23T20:21:45.483Z,57.50
2018-02-23T20:24:14.574Z,56.80
2018-02-23T20:26:42.866Z,56.70
2018-02-23T20:29:11.199Z,55.80
2018-02-23T20:31:39.557Z,56.30
2018-02-23T20:34:07.890Z,56.40
2018-02-23T20:36:36.192Z,55.40
2018-02-23T20:39:04.526Z,56.30
2018-02-23T20:41:33.084Z,57.20
2018-02-23T20:44:01.763Z,57.10
2018-02-23T20:46:30.126Z,58.10
2018-02-23T20:48:58.486Z,57.50
2018-02-23T20:51:27.621Z,57.60
2018-02-23T20:53:56.724Z,57.60
2018-02-23T20:56:25.038Z,57.70
2018-02-23T20:58:53.363Z,56.90
2018-02-23T21:01:21.670Z,57.10
2018-02-23T21:03:50.218Z,57.60
2018-02-23T21:06:18.655Z,58.10
2018-02-23T21:08:47.067Z,58.40
2018-02-23T21:11:15.359Z,58.70
2018-02-23T21:13:43.687Z,58.60
2018-02-23T21:16:11.987Z,58.10
2018-02-23T21:18:40.282Z,58.00
2018-02-23T21:21:08.607Z,57.80
2018-02-23T21:23:37.677Z,58.70
2018-02-23T21:26:06.118Z,58.60
2018-02-23T21:28:34.431Z,59.30
2018-02-23T21:31:03.013Z,60.10
2018-02-23T21:33:32.242Z,61.10
2018-02-23T21:36:01.680Z,61.20
2018-02-23T21:38:31.150Z,60.70
2018-02-23T21:41:00.447Z,60.70
2018-02-23T21:43:29.632Z,61.40
2018-02-23T21:45:58.858Z,61.50
2018-02-23T21:48:27.263Z,61.40
2018-02-23T21:50:55.551Z,60.80
2018-02-23T21:53:24.060Z,60.10
2018-02-23T21:55:53.391Z,61.10
2018-02-23T21:58:21.782Z,61.00
2018-02-23T22:00:50.157Z,61.10
2018-02-23T22:03:19.247Z,61.40
2018-02-23T22:05:48.350Z,61.70
2018-02-23T22:08:16.687Z,62.40
2018-02-23T22:10:45.741Z,62.00
2018-02-23T22:13:14.367Z,62.00
2018-02-23T22:15:43.090Z,61.70
2018-02-23T22:18:11.414Z,61.60
2018-02-23T22:20:39.742Z,61.10
2018-02-23T22:23:08.439Z,60.60
2018-02-23T22:25:37.834Z,61.70
2018-02-23T22:28:06.718Z,61.50
2018-02-23T22:30:35.666Z,61.70
2018-02-23T22:33:04.073Z,62.10
2018-02-23T22:35:33.301Z,62.80
2018-02-23T22:38:02.026Z,63.00
2018-02-23T22:40:30.780Z,62.30
2018-02-23T22:42:59.878Z,62.10
2018-02-23T22:45:28.223Z,62.90
2018-02-23T22:47:57.216Z,62.60
2018-02-23T22:50:25.657Z,62.70
2018-02-23T22:52:54.192Z,62.70
2018-02-23T22:55:22.815Z,63.20
2018-02-23T22:57:51.606Z,62.30
2018-02-23T23:00:20.014Z,62.50
2018-02-23T23:02:48.306Z,62.60
2018-02-23T23:05:16.703Z,62.60
2018-02-23T23:07:45.031Z,63.50
2018-02-23T23:10:13.434Z,63.50
2018-02-23T23:12:41.738Z,63.70
2018-02-23T23:15:10.113Z,63.30
2018-02-23T23:17:39.279Z,63.40
2018-02-23T23:20:08.619Z,63.50
2018-02-23T23:22:38.084Z,62.80
2018-02-23T23:25:06.771Z,62.70
2018-02-23T23:27:35.245Z,62.90
2018-02-23T23:30:04.526Z,63.50
2018-02-23T23:32:33.958Z,63.90
2018-02-23T23:35:02.536Z,63.80
2018-02-23T23:37:30.991Z,64.10
2018-02-23T23:39:59.542Z,64.80
2018-02-23T23:42:27.866Z,65.70
2018-02-23T23:44:56.188Z,66.40
2018-02-23T23:47:24.757Z,66.60
2018-02-23T23:49:53.498Z,66.30
2018-02-23T23:52:21.899Z,66.20
2018-02-23T23:54:51.108Z,67.00
2018-02-23T23:57:19.428Z,66.50
2018-02-23T23:59:47.769Z,66.40
